YTEF/TEF METAR and TAF weather

Enter ICAO airport designator
Station Type Date Time Source
YTEF METAR 2019/08/26 07:00 UTC NOAA

YTEF 260700Z AUTO 01010KT 9999 // NCD 33/M06 Q1011


Station Type Date Time Source
YTEF Decoded METAR 2019/08/26 07:00 UTC NOAA

Station name not available
Aug 26, 2019 - 03:00 AM EDT / 2019.08.26 0700 UTC
Wind: from the N (010 degrees) at 12 MPH (10 KT):0
Visibility: greater than 7 mile(s):0
Temperature: 91 F (33 C)
Dew Point: 21 F (-6 C)
Relative Humidity: 7%
Pressure (altimeter): 29.85 in. Hg (1011 hPa)
ob: YTEF 260700Z AUTO 01010KT 9999 // NCD 33/M06 Q1011
cycle: 7

Station Type Date Time Source
YTEF TAF 2017/06/24 02:03 UTC NOAA

TAF TAF YTEF 240051Z 2402/2414 12005KT CAVOK
FM240500 33005KT 9999 -SHRA SCT060 BKN100

Example: see airport list